createdAt,value
2022-12-29T00:01:02.817Z,7.16
2022-12-29T00:03:32.376Z,7.24
2022-12-29T00:06:01.901Z,7.22
2022-12-29T00:08:40.675Z,7.27
2022-12-29T00:11:09.845Z,7.24
2022-12-29T00:13:55.459Z,7.32
2022-12-29T00:16:23.893Z,7.37
2022-12-29T00:18:53.270Z,7.38
2022-12-29T00:21:52.324Z,7.32
2022-12-29T00:24:39.239Z,7.40
2022-12-29T00:27:31.281Z,7.35
2022-12-29T00:30:17.330Z,7.50
2022-12-29T00:33:03.326Z,7.42
2022-12-29T00:35:36.125Z,7.46
2022-12-29T00:38:24.661Z,7.53
2022-12-29T00:41:10.232Z,7.48
2022-12-29T00:43:55.660Z,7.52
2022-12-29T00:46:23.749Z,7.49
2022-12-29T00:49:09.253Z,7.52
2022-12-29T00:51:38.670Z,7.58
2022-12-29T00:54:06.701Z,7.56
2022-12-29T00:56:35.239Z,7.63
2022-12-29T00:59:03.522Z,7.61
2022-12-29T01:01:31.696Z,7.60
2022-12-29T01:04:03.699Z,7.66
2022-12-29T01:06:31.973Z,7.61
2022-12-29T01:09:19.473Z,7.70
2022-12-29T01:11:47.431Z,7.70
2022-12-29T01:14:15.635Z,7.73
2022-12-29T01:16:43.997Z,7.75
2022-12-29T01:19:12.158Z,7.74
2022-12-29T01:21:40.197Z,7.70
2022-12-29T01:24:09.977Z,7.76
2022-12-29T01:26:37.979Z,7.79
2022-12-29T01:29:06.979Z,7.81
2022-12-29T01:31:35.423Z,7.76
2022-12-29T01:34:03.640Z,7.79
2022-12-29T01:36:32.038Z,7.81
2022-12-29T01:39:00.032Z,7.91
2022-12-29T01:41:30.042Z,7.85
2022-12-29T01:44:02.030Z,7.83
2022-12-29T01:46:33.910Z,7.90
2022-12-29T01:49:07.700Z,7.87
2022-12-29T01:51:38.788Z,7.96
2022-12-29T01:54:11.567Z,7.97
2022-12-29T01:56:41.262Z,7.91
2022-12-29T01:59:13.995Z,7.96
2022-12-29T02:01:42.570Z,8.01
2022-12-29T02:04:13.221Z,7.97
2022-12-29T02:06:47.480Z,8.02
2022-12-29T02:09:15.487Z,8.04
2022-12-29T02:11:44.882Z,8.04
2022-12-29T02:14:16.642Z,7.96
2022-12-29T02:17:00.316Z,8.04
2022-12-29T02:20:13.717Z,8.21
2022-12-29T02:22:55.496Z,8.31
2022-12-29T02:25:59.565Z,8.37
2022-12-29T02:28:55.760Z,8.44
2022-12-29T02:31:31.018Z,8.44
2022-12-29T02:34:09.311Z,8.51
2022-12-29T02:36:45.261Z,8.43
2022-12-29T02:39:23.203Z,8.44
2022-12-29T02:42:02.156Z,8.47
2022-12-29T02:44:38.697Z,8.53
2022-12-29T02:47:16.482Z,8.56
2022-12-29T02:49:52.596Z,8.52
2022-12-29T02:52:28.706Z,8.66
2022-12-29T02:54:56.131Z,8.56
2022-12-29T02:57:32.844Z,8.57
2022-12-29T03:00:08.477Z,8.60
2022-12-29T03:03:06.910Z,8.74
2022-12-29T03:06:02.011Z,8.70
2022-12-29T03:08:40.675Z,8.69
2022-12-29T03:11:31.485Z,8.71
2022-12-29T03:14:23.439Z,8.79
2022-12-29T03:16:56.165Z,8.72
2022-12-29T03:19:28.460Z,8.88
2022-12-29T03:22:16.668Z,8.85
2022-12-29T03:24:49.609Z,8.81
2022-12-29T03:27:22.080Z,8.83
2022-12-29T03:29:55.217Z,8.79
2022-12-29T03:32:25.907Z,8.89
2022-12-29T03:34:56.765Z,8.86
2022-12-29T03:37:28.091Z,8.73
2022-12-29T03:39:56.558Z,8.77
2022-12-29T03:42:28.695Z,8.74
2022-12-29T03:44:58.665Z,8.72
2022-12-29T03:47:27.591Z,8.69
2022-12-29T03:49:56.962Z,8.73
2022-12-29T03:52:24.956Z,8.75
2022-12-29T03:54:52.949Z,8.76
2022-12-29T03:57:20.931Z,8.78
2022-12-29T03:59:49.039Z,8.75
2022-12-29T04:02:17.238Z,8.62
2022-12-29T04:04:46.475Z,8.78
2022-12-29T04:07:15.835Z,8.77
2022-12-29T04:09:43.812Z,8.78
2022-12-29T04:12:11.758Z,8.82
2022-12-29T04:14:39.743Z,8.82
2022-12-29T04:17:07.735Z,8.79
2022-12-29T04:19:35.726Z,8.85
2022-12-29T04:22:03.766Z,8.91
2022-12-29T04:24:33.173Z,8.86
2022-12-29T04:27:01.728Z,8.83
2022-12-29T04:29:29.790Z,8.89
2022-12-29T04:31:57.755Z,8.93
2022-12-29T04:34:25.798Z,8.86
2022-12-29T04:36:53.745Z,8.92
2022-12-29T04:39:21.929Z,8.92
2022-12-29T04:41:51.245Z,8.84
2022-12-29T04:44:19.250Z,8.88
2022-12-29T04:46:47.302Z,8.93
2022-12-29T04:49:15.430Z,8.86
2022-12-29T04:51:43.456Z,8.92
2022-12-29T04:54:11.411Z,8.87
2022-12-29T04:56:39.338Z,8.86
2022-12-29T04:59:08.665Z,8.92
2022-12-29T05:01:36.739Z,8.91
2022-12-29T05:04:04.985Z,8.93
2022-12-29T05:06:32.953Z,8.91
2022-12-29T05:09:00.976Z,8.86
2022-12-29T05:11:28.951Z,8.90
2022-12-29T05:13:56.923Z,8.90
2022-12-29T05:16:26.278Z,8.94
2022-12-29T05:18:54.369Z,8.90
2022-12-29T05:21:22.406Z,8.91
2022-12-29T05:23:50.348Z,8.96
2022-12-29T05:26:18.727Z,9.00
2022-12-29T05:28:46.771Z,9.06
2022-12-29T05:31:14.846Z,9.01
2022-12-29T05:33:44.268Z,8.97
2022-12-29T05:36:12.882Z,9.13
2022-12-29T05:38:40.847Z,9.21
2022-12-29T05:41:08.835Z,9.20
2022-12-29T05:43:36.832Z,9.14
2022-12-29T05:46:05.206Z,9.25
2022-12-29T05:48:37.824Z,9.32
2022-12-29T05:51:07.732Z,9.20
2022-12-29T05:53:35.721Z,9.27
2022-12-29T05:56:03.722Z,9.36
2022-12-29T05:58:31.706Z,9.32
2022-12-29T06:00:59.720Z,9.34
2022-12-29T06:03:27.803Z,9.41
2022-12-29T06:05:55.951Z,9.27
2022-12-29T06:08:25.384Z,9.35
2022-12-29T06:10:53.476Z,9.28
2022-12-29T06:13:21.583Z,9.42
2022-12-29T06:15:51.061Z,9.30
2022-12-29T06:18:20.370Z,9.25
2022-12-29T06:20:48.929Z,9.33
2022-12-29T06:23:17.584Z,9.38
2022-12-29T06:25:48.591Z,9.38
2022-12-29T06:28:17.453Z,9.35
2022-12-29T06:30:46.820Z,9.25
2022-12-29T06:33:14.900Z,9.41
2022-12-29T06:35:44.229Z,9.35
2022-12-29T06:38:12.254Z,9.28
2022-12-29T06:40:40.597Z,9.28
2022-12-29T06:43:09.994Z,9.27
2022-12-29T06:45:40.200Z,9.27
2022-12-29T06:48:08.673Z,9.28
2022-12-29T06:50:36.736Z,9.32
2022-12-29T06:53:04.883Z,9.32
2022-12-29T06:55:33.029Z,9.26
2022-12-29T06:58:02.045Z,9.26
2022-12-29T07:00:31.487Z,9.33
2022-12-29T07:03:00.154Z,9.32
2022-12-29T07:05:28.976Z,9.30
2022-12-29T07:07:57.246Z,9.29
2022-12-29T07:10:25.386Z,9.25
2022-12-29T07:12:53.482Z,9.25
2022-12-29T07:15:21.486Z,9.20
2022-12-29T07:17:51.539Z,9.18
2022-12-29T07:20:26.316Z,9.16
2022-12-29T07:22:56.860Z,9.08
2022-12-29T07:25:25.161Z,9.07
2022-12-29T07:27:53.204Z,9.06
2022-12-29T07:30:21.208Z,9.04
2022-12-29T07:32:50.594Z,9.01
2022-12-29T07:35:18.631Z,9.06
2022-12-29T07:37:46.774Z,9.12
2022-12-29T07:40:14.893Z,9.09
2022-12-29T07:42:42.855Z,9.14
2022-12-29T07:45:11.657Z,9.13
2022-12-29T07:47:39.840Z,9.19
2022-12-29T07:50:09.820Z,9.13
2022-12-29T07:52:37.864Z,9.15
2022-12-29T07:55:06.684Z,9.15
2022-12-29T07:57:34.738Z,9.11
2022-12-29T08:00:03.155Z,9.10
2022-12-29T08:02:31.234Z,9.13
2022-12-29T08:04:59.307Z,9.14
2022-12-29T08:07:28.713Z,9.10
2022-12-29T08:09:56.732Z,9.19
2022-12-29T08:12:24.785Z,9.25
2022-12-29T08:14:52.740Z,9.28
2022-12-29T08:17:20.716Z,9.44
2022-12-29T08:19:48.780Z,9.43
2022-12-29T08:22:17.171Z,9.41
2022-12-29T08:24:46.538Z,9.45
2022-12-29T08:27:20.484Z,9.44
2022-12-29T08:29:49.159Z,9.42
2022-12-29T08:32:17.879Z,9.29
2022-12-29T08:34:45.931Z,9.41
2022-12-29T08:37:14.194Z,9.60
2022-12-29T08:39:42.313Z,9.59
2022-12-29T08:42:11.749Z,9.49
2022-12-29T08:44:39.728Z,9.59
2022-12-29T08:47:09.000Z,9.64
2022-12-29T08:49:37.006Z,9.69
2022-12-29T08:52:06.353Z,9.73
2022-12-29T08:54:34.367Z,9.63
2022-12-29T08:57:02.402Z,9.77
2022-12-29T08:59:31.797Z,9.82
2022-12-29T09:01:59.910Z,9.89
2022-12-29T09:04:28.356Z,9.87
2022-12-29T09:06:56.701Z,9.83
2022-12-29T09:09:24.790Z,9.69
2022-12-29T09:11:52.772Z,9.73
2022-12-29T09:14:22.526Z,9.67
2022-12-29T09:17:10.114Z,9.76
2022-12-29T09:19:38.176Z,9.71
2022-12-29T09:22:06.276Z,9.69
2022-12-29T09:24:34.299Z,9.78
2022-12-29T09:27:02.292Z,9.77
2022-12-29T09:29:30.291Z,9.77
2022-12-29T09:31:59.616Z,9.84
2022-12-29T09:34:27.622Z,9.82
2022-12-29T09:36:57.119Z,9.84
2022-12-29T09:39:25.569Z,9.82
2022-12-29T09:42:03.138Z,9.90
2022-12-29T09:44:44.975Z,9.89
2022-12-29T09:47:18.069Z,9.96
2022-12-29T09:49:50.626Z,10.04
2022-12-29T09:52:23.710Z,10.07
2022-12-29T09:55:02.941Z,10.02
2022-12-29T09:57:40.290Z,10.05
